sensor_id;sensor_type;location;lat;lon;timestamp;P1;durP1;ratioP1;P2;durP2;ratioP2
42518;SDS011;28147;47.520;18.920;2024-02-16T00:22:58;15.88;;;8.60;;
42518;SDS011;28147;47.520;18.920;2024-02-16T00:27:06;18.40;;;9.85;;
42518;SDS011;28147;47.520;18.920;2024-02-16T00:31:02;22.80;;;9.52;;
42518;SDS011;28147;47.520;18.920;2024-02-16T00:33:27;17.55;;;8.48;;
42518;SDS011;28147;47.520;18.920;2024-02-16T00:35:54;16.42;;;9.43;;
42518;SDS011;28147;47.520;18.920;2024-02-16T00:38:19;17.13;;;8.52;;
42518;SDS011;28147;47.520;18.920;2024-02-16T00:40:44;15.95;;;9.52;;
42518;SDS011;28147;47.520;18.920;2024-02-16T00:46:53;15.02;;;8.68;;
42518;SDS011;28147;47.520;18.920;2024-02-16T00:49:18;17.58;;;9.23;;
42518;SDS011;28147;47.520;18.920;2024-02-16T00:58:09;17.42;;;8.52;;
42518;SDS011;28147;47.520;18.920;2024-02-16T01:00:34;13.60;;;8.32;;
42518;SDS011;28147;47.520;18.920;2024-02-16T01:03:00;14.63;;;8.57;;
42518;SDS011;28147;47.520;18.920;2024-02-16T01:05:26;17.67;;;8.80;;
42518;SDS011;28147;47.520;18.920;2024-02-16T01:07:51;15.07;;;8.63;;
42518;SDS011;28147;47.520;18.920;2024-02-16T01:10:16;21.13;;;10.30;;
42518;SDS011;28147;47.520;18.920;2024-02-16T01:14:05;19.13;;;9.70;;
42518;SDS011;28147;47.520;18.920;2024-02-16T01:16:30;16.02;;;8.88;;
42518;SDS011;28147;47.520;18.920;2024-02-16T01:23:05;16.30;;;9.25;;
42518;SDS011;28147;47.520;18.920;2024-02-16T01:25:31;21.20;;;9.65;;
42518;SDS011;28147;47.520;18.920;2024-02-16T01:28:41;17.58;;;9.60;;
42518;SDS011;28147;47.520;18.920;2024-02-16T01:31:59;17.95;;;10.13;;
42518;SDS011;28147;47.520;18.920;2024-02-16T01:34:24;15.30;;;9.40;;
42518;SDS011;28147;47.520;18.920;2024-02-16T01:36:49;19.02;;;10.18;;
42518;SDS011;28147;47.520;18.920;2024-02-16T01:39:14;17.77;;;9.88;;
42518;SDS011;28147;47.520;18.920;2024-02-16T01:41:40;16.48;;;10.20;;
42518;SDS011;28147;47.520;18.920;2024-02-16T01:44:05;14.55;;;9.27;;
42518;SDS011;28147;47.520;18.920;2024-02-16T01:46:31;20.15;;;10.07;;
42518;SDS011;28147;47.520;18.920;2024-02-16T01:48:58;18.02;;;9.45;;
42518;SDS011;28147;47.520;18.920;2024-02-16T01:51:23;16.10;;;9.55;;
42518;SDS011;28147;47.520;18.920;2024-02-16T01:53:50;16.92;;;10.35;;
42518;SDS011;28147;47.520;18.920;2024-02-16T01:56:17;15.27;;;8.95;;
42518;SDS011;28147;47.520;18.920;2024-02-16T01:58:45;14.20;;;7.85;;
42518;SDS011;28147;47.520;18.920;2024-02-16T02:03:06;13.65;;;8.35;;
42518;SDS011;28147;47.520;18.920;2024-02-16T02:05:32;14.82;;;7.90;;
42518;SDS011;28147;47.520;18.920;2024-02-16T02:07:58;17.20;;;8.57;;
42518;SDS011;28147;47.520;18.920;2024-02-16T02:10:23;14.82;;;8.30;;
42518;SDS011;28147;47.520;18.920;2024-02-16T02:13:07;13.88;;;8.45;;
42518;SDS011;28147;47.520;18.920;2024-02-16T02:15:33;15.95;;;7.53;;
42518;SDS011;28147;47.520;18.920;2024-02-16T02:17:59;13.77;;;8.00;;
42518;SDS011;28147;47.520;18.920;2024-02-16T02:21:18;12.48;;;7.80;;
42518;SDS011;28147;47.520;18.920;2024-02-16T02:23:43;14.27;;;7.97;;
42518;SDS011;28147;47.520;18.920;2024-02-16T02:27:40;16.95;;;8.43;;
42518;SDS011;28147;47.520;18.920;2024-02-16T02:30:06;12.95;;;8.18;;
42518;SDS011;28147;47.520;18.920;2024-02-16T02:33:27;13.40;;;7.65;;
42518;SDS011;28147;47.520;18.920;2024-02-16T02:35:52;16.63;;;8.20;;
42518;SDS011;28147;47.520;18.920;2024-02-16T02:38:18;15.50;;;7.72;;
42518;SDS011;28147;47.520;18.920;2024-02-16T02:40:43;12.40;;;7.50;;
42518;SDS011;28147;47.520;18.920;2024-02-16T02:43:08;16.63;;;8.80;;
42518;SDS011;28147;47.520;18.920;2024-02-16T02:45:34;15.60;;;7.68;;
42518;SDS011;28147;47.520;18.920;2024-02-16T02:47:59;12.82;;;7.50;;
42518;SDS011;28147;47.520;18.920;2024-02-16T02:50:25;14.27;;;7.95;;
42518;SDS011;28147;47.520;18.920;2024-02-16T02:52:50;14.70;;;8.63;;
42518;SDS011;28147;47.520;18.920;2024-02-16T02:55:15;20.05;;;9.10;;
42518;SDS011;28147;47.520;18.920;2024-02-16T02:57:41;17.55;;;9.15;;
42518;SDS011;28147;47.520;18.920;2024-02-16T03:00:07;13.90;;;7.82;;
42518;SDS011;28147;47.520;18.920;2024-02-16T03:02:36;13.88;;;8.25;;
42518;SDS011;28147;47.520;18.920;2024-02-16T03:05:02;15.30;;;8.90;;
42518;SDS011;28147;47.520;18.920;2024-02-16T03:07:28;16.92;;;9.68;;
42518;SDS011;28147;47.520;18.920;2024-02-16T03:09:53;16.33;;;8.75;;
42518;SDS011;28147;47.520;18.920;2024-02-16T03:12:19;18.23;;;8.85;;
42518;SDS011;28147;47.520;18.920;2024-02-16T03:14:44;14.15;;;8.30;;
42518;SDS011;28147;47.520;18.920;2024-02-16T03:17:09;15.82;;;8.52;;
42518;SDS011;28147;47.520;18.920;2024-02-16T03:19:35;15.30;;;8.68;;
42518;SDS011;28147;47.520;18.920;2024-02-16T03:22:01;14.07;;;8.40;;
42518;SDS011;28147;47.520;18.920;2024-02-16T03:24:26;15.45;;;8.18;;
42518;SDS011;28147;47.520;18.920;2024-02-16T03:26:51;15.30;;;8.25;;
42518;SDS011;28147;47.520;18.920;2024-02-16T03:29:17;17.10;;;9.27;;
42518;SDS011;28147;47.520;18.920;2024-02-16T03:31:42;15.45;;;8.55;;
42518;SDS011;28147;47.520;18.920;2024-02-16T03:34:08;14.40;;;8.43;;
42518;SDS011;28147;47.520;18.920;2024-02-16T03:36:33;15.70;;;8.82;;
42518;SDS011;28147;47.520;18.920;2024-02-16T03:38:59;15.57;;;8.35;;
42518;SDS011;28147;47.520;18.920;2024-02-16T03:41:24;14.98;;;7.68;;
42518;SDS011;28147;47.520;18.920;2024-02-16T03:43:50;14.77;;;8.48;;
42518;SDS011;28147;47.520;18.920;2024-02-16T03:46:16;15.32;;;8.65;;
42518;SDS011;28147;47.520;18.920;2024-02-16T03:48:41;15.05;;;8.60;;
42518;SDS011;28147;47.520;18.920;2024-02-16T03:51:07;16.85;;;8.88;;
42518;SDS011;28147;47.520;18.920;2024-02-16T03:53:33;15.00;;;8.70;;
42518;SDS011;28147;47.520;18.920;2024-02-16T03:55:59;15.82;;;8.48;;
42518;SDS011;28147;47.520;18.920;2024-02-16T03:58:24;16.55;;;8.43;;
42518;SDS011;28147;47.520;18.920;2024-02-16T04:00:50;17.00;;;8.40;;
42518;SDS011;28147;47.520;18.920;2024-02-16T04:03:16;13.48;;;8.15;;
42518;SDS011;28147;47.520;18.920;2024-02-16T04:06:23;15.75;;;8.82;;
42518;SDS011;28147;47.520;18.920;2024-02-16T04:08:48;14.38;;;8.82;;
42518;SDS011;28147;47.520;18.920;2024-02-16T04:11:14;15.07;;;8.77;;
42518;SDS011;28147;47.520;18.920;2024-02-16T04:13:40;14.38;;;8.63;;
42518;SDS011;28147;47.520;18.920;2024-02-16T04:16:05;12.20;;;8.38;;
42518;SDS011;28147;47.520;18.920;2024-02-16T04:18:31;14.85;;;8.82;;
42518;SDS011;28147;47.520;18.920;2024-02-16T04:20:56;16.88;;;8.27;;
42518;SDS011;28147;47.520;18.920;2024-02-16T04:23:22;16.08;;;8.63;;
42518;SDS011;28147;47.520;18.920;2024-02-16T04:25:47;17.42;;;9.05;;
42518;SDS011;28147;47.520;18.920;2024-02-16T04:28:12;14.98;;;9.32;;
42518;SDS011;28147;47.520;18.920;2024-02-16T04:30:38;15.48;;;8.70;;
42518;SDS011;28147;47.520;18.920;2024-02-16T04:33:04;16.83;;;8.23;;
42518;SDS011;28147;47.520;18.920;2024-02-16T04:35:29;16.58;;;8.73;;
42518;SDS011;28147;47.520;18.920;2024-02-16T04:37:55;17.08;;;9.00;;
42518;SDS011;28147;47.520;18.920;2024-02-16T04:40:20;15.57;;;8.38;;
42518;SDS011;28147;47.520;18.920;2024-02-16T04:42:45;15.10;;;8.75;;
42518;SDS011;28147;47.520;18.920;2024-02-16T04:45:11;17.33;;;8.88;;
42518;SDS011;28147;47.520;18.920;2024-02-16T04:47:37;16.50;;;9.50;;
42518;SDS011;28147;47.520;18.920;2024-02-16T04:50:02;16.45;;;8.77;;
42518;SDS011;28147;47.520;18.920;2024-02-16T04:52:28;14.77;;;8.98;;
42518;SDS011;28147;47.520;18.920;2024-02-16T04:54:53;15.50;;;8.90;;
42518;SDS011;28147;47.520;18.920;2024-02-16T04:57:19;19.30;;;9.13;;
42518;SDS011;28147;47.520;18.920;2024-02-16T04:59:44;17.38;;;8.85;;
42518;SDS011;28147;47.520;18.920;2024-02-16T05:02:09;15.90;;;8.30;;
42518;SDS011;28147;47.520;18.920;2024-02-16T05:04:35;16.80;;;8.88;;
42518;SDS011;28147;47.520;18.920;2024-02-16T05:07:00;14.60;;;8.95;;
42518;SDS011;28147;47.520;18.920;2024-02-16T05:09:26;17.05;;;8.60;;
42518;SDS011;28147;47.520;18.920;2024-02-16T05:11:51;15.32;;;8.70;;
42518;SDS011;28147;47.520;18.920;2024-02-16T05:14:17;15.15;;;8.20;;
42518;SDS011;28147;47.520;18.920;2024-02-16T05:16:45;17.88;;;8.05;;
42518;SDS011;28147;47.520;18.920;2024-02-16T05:19:12;16.20;;;8.98;;
42518;SDS011;28147;47.520;18.920;2024-02-16T05:21:38;14.80;;;8.02;;
42518;SDS011;28147;47.520;18.920;2024-02-16T05:24:03;16.30;;;8.90;;
42518;SDS011;28147;47.520;18.920;2024-02-16T05:26:29;15.45;;;8.88;;
42518;SDS011;28147;47.520;18.920;2024-02-16T05:28:54;14.07;;;8.00;;
42518;SDS011;28147;47.520;18.920;2024-02-16T05:31:19;14.98;;;8.52;;
42518;SDS011;28147;47.520;18.920;2024-02-16T05:33:46;15.05;;;8.35;;
42518;SDS011;28147;47.520;18.920;2024-02-16T05:36:20;15.20;;;8.40;;
42518;SDS011;28147;47.520;18.920;2024-02-16T05:38:49;15.50;;;8.05;;
42518;SDS011;28147;47.520;18.920;2024-02-16T05:41:18;15.43;;;8.50;;
42518;SDS011;28147;47.520;18.920;2024-02-16T05:43:43;18.90;;;8.25;;
42518;SDS011;28147;47.520;18.920;2024-02-16T05:46:15;14.27;;;8.23;;
42518;SDS011;28147;47.520;18.920;2024-02-16T05:48:41;13.80;;;7.65;;
42518;SDS011;28147;47.520;18.920;2024-02-16T05:51:07;13.13;;;7.70;;
42518;SDS011;28147;47.520;18.920;2024-02-16T05:53:33;11.07;;;7.20;;
42518;SDS011;28147;47.520;18.920;2024-02-16T05:55:58;14.45;;;7.15;;
42518;SDS011;28147;47.520;18.920;2024-02-16T05:58:24;14.18;;;8.25;;
42518;SDS011;28147;47.520;18.920;2024-02-16T06:00:50;11.77;;;6.85;;
42518;SDS011;28147;47.520;18.920;2024-02-16T06:03:15;15.80;;;8.20;;
42518;SDS011;28147;47.520;18.920;2024-02-16T06:05:41;12.65;;;7.25;;
42518;SDS011;28147;47.520;18.920;2024-02-16T06:08:09;13.15;;;6.80;;
42518;SDS011;28147;47.520;18.920;2024-02-16T06:10:35;12.10;;;6.93;;
42518;SDS011;28147;47.520;18.920;2024-02-16T06:13:01;13.63;;;7.50;;
42518;SDS011;28147;47.520;18.920;2024-02-16T06:15:26;14.50;;;7.30;;
42518;SDS011;28147;47.520;18.920;2024-02-16T06:17:51;10.90;;;6.45;;
42518;SDS011;28147;47.520;18.920;2024-02-16T06:20:17;13.02;;;7.38;;
42518;SDS011;28147;47.520;18.920;2024-02-16T06:22:43;12.07;;;7.07;;
42518;SDS011;28147;47.520;18.920;2024-02-16T06:25:08;13.90;;;7.85;;
42518;SDS011;28147;47.520;18.920;2024-02-16T06:27:34;11.43;;;7.53;;
42518;SDS011;28147;47.520;18.920;2024-02-16T06:30:00;13.30;;;7.70;;
42518;SDS011;28147;47.520;18.920;2024-02-16T06:32:25;13.15;;;7.28;;
42518;SDS011;28147;47.520;18.920;2024-02-16T06:34:59;17.83;;;9.90;;
42518;SDS011;28147;47.520;18.920;2024-02-16T06:37:24;14.50;;;8.50;;
42518;SDS011;28147;47.520;18.920;2024-02-16T06:39:49;14.35;;;8.48;;
42518;SDS011;28147;47.520;18.920;2024-02-16T06:42:15;20.00;;;8.63;;
42518;SDS011;28147;47.520;18.920;2024-02-16T06:44:40;15.07;;;9.60;;
42518;SDS011;28147;47.520;18.920;2024-02-16T06:47:06;17.15;;;10.25;;
42518;SDS011;28147;47.520;18.920;2024-02-16T06:49:51;22.87;;;11.70;;
42518;SDS011;28147;47.520;18.920;2024-02-16T06:52:16;19.35;;;10.70;;
42518;SDS011;28147;47.520;18.920;2024-02-16T06:54:41;17.17;;;9.90;;
42518;SDS011;28147;47.520;18.920;2024-02-16T06:57:07;18.92;;;11.77;;
42518;SDS011;28147;47.520;18.920;2024-02-16T06:59:32;19.55;;;11.20;;
42518;SDS011;28147;47.520;18.920;2024-02-16T07:01:57;17.48;;;11.10;;
42518;SDS011;28147;47.520;18.920;2024-02-16T07:04:22;19.05;;;11.13;;
42518;SDS011;28147;47.520;18.920;2024-02-16T07:06:48;18.05;;;10.95;;
42518;SDS011;28147;47.520;18.920;2024-02-16T07:09:13;19.48;;;10.50;;
42518;SDS011;28147;47.520;18.920;2024-02-16T07:11:40;19.20;;;11.52;;
42518;SDS011;28147;47.520;18.920;2024-02-16T07:14:06;19.20;;;10.75;;
42518;SDS011;28147;47.520;18.920;2024-02-16T07:16:33;20.17;;;11.25;;
42518;SDS011;28147;47.520;18.920;2024-02-16T07:18:58;18.48;;;10.43;;
42518;SDS011;28147;47.520;18.920;2024-02-16T07:21:24;20.98;;;12.07;;
42518;SDS011;28147;47.520;18.920;2024-02-16T07:23:51;21.77;;;12.32;;
42518;SDS011;28147;47.520;18.920;2024-02-16T07:26:17;24.52;;;13.25;;
42518;SDS011;28147;47.520;18.920;2024-02-16T07:28:42;21.02;;;12.85;;
42518;SDS011;28147;47.520;18.920;2024-02-16T07:31:07;20.17;;;11.68;;
42518;SDS011;28147;47.520;18.920;2024-02-16T07:33:33;22.15;;;11.60;;
42518;SDS011;28147;47.520;18.920;2024-02-16T07:35:58;22.60;;;12.25;;
42518;SDS011;28147;47.520;18.920;2024-02-16T07:38:23;16.95;;;11.02;;
42518;SDS011;28147;47.520;18.920;2024-02-16T07:40:49;18.40;;;9.75;;
42518;SDS011;28147;47.520;18.920;2024-02-16T07:43:15;18.55;;;10.57;;
42518;SDS011;28147;47.520;18.920;2024-02-16T07:45:41;18.65;;;10.63;;
42518;SDS011;28147;47.520;18.920;2024-02-16T07:48:06;18.13;;;9.15;;
42518;SDS011;28147;47.520;18.920;2024-02-16T07:50:32;16.83;;;9.45;;
42518;SDS011;28147;47.520;18.920;2024-02-16T07:52:58;19.13;;;9.98;;
42518;SDS011;28147;47.520;18.920;2024-02-16T07:55:23;16.65;;;10.05;;
42518;SDS011;28147;47.520;18.920;2024-02-16T07:57:52;17.73;;;10.23;;
42518;SDS011;28147;47.520;18.920;2024-02-16T08:00:17;14.27;;;8.48;;
42518;SDS011;28147;47.520;18.920;2024-02-16T08:02:43;16.27;;;9.30;;
42518;SDS011;28147;47.520;18.920;2024-02-16T08:05:08;15.57;;;9.05;;
42518;SDS011;28147;47.520;18.920;2024-02-16T08:07:37;15.50;;;8.82;;
42518;SDS011;28147;47.520;18.920;2024-02-16T08:10:03;17.58;;;9.57;;
42518;SDS011;28147;47.520;18.920;2024-02-16T08:12:28;14.27;;;8.55;;
42518;SDS011;28147;47.520;18.920;2024-02-16T08:14:56;13.93;;;8.85;;
42518;SDS011;28147;47.520;18.920;2024-02-16T08:17:21;12.40;;;8.27;;
42518;SDS011;28147;47.520;18.920;2024-02-16T08:19:51;15.75;;;8.98;;
42518;SDS011;28147;47.520;18.920;2024-02-16T08:22:18;14.73;;;8.45;;
42518;SDS011;28147;47.520;18.920;2024-02-16T08:24:44;14.13;;;7.55;;
42518;SDS011;28147;47.520;18.920;2024-02-16T08:27:11;14.57;;;8.70;;
42518;SDS011;28147;47.520;18.920;2024-02-16T08:29:37;13.00;;;7.97;;
42518;SDS011;28147;47.520;18.920;2024-02-16T08:32:03;14.65;;;8.43;;
42518;SDS011;28147;47.520;18.920;2024-02-16T08:34:29;14.98;;;8.10;;
42518;SDS011;28147;47.520;18.920;2024-02-16T08:36:54;15.15;;;8.43;;
42518;SDS011;28147;47.520;18.920;2024-02-16T08:39:20;12.50;;;7.22;;
42518;SDS011;28147;47.520;18.920;2024-02-16T08:41:45;15.02;;;7.72;;
42518;SDS011;28147;47.520;18.920;2024-02-16T08:44:13;13.77;;;7.55;;
42518;SDS011;28147;47.520;18.920;2024-02-16T08:46:39;11.35;;;7.22;;
42518;SDS011;28147;47.520;18.920;2024-02-16T08:49:07;15.05;;;8.18;;
42518;SDS011;28147;47.520;18.920;2024-02-16T08:51:34;14.13;;;6.90;;
42518;SDS011;28147;47.520;18.920;2024-02-16T08:54:00;14.38;;;7.07;;
42518;SDS011;28147;47.520;18.920;2024-02-16T08:56:27;11.27;;;6.85;;
42518;SDS011;28147;47.520;18.920;2024-02-16T08:58:52;15.13;;;7.22;;
42518;SDS011;28147;47.520;18.920;2024-02-16T09:01:17;14.05;;;7.55;;
42518;SDS011;28147;47.520;18.920;2024-02-16T09:03:43;11.05;;;6.20;;
42518;SDS011;28147;47.520;18.920;2024-02-16T09:06:08;13.35;;;7.78;;
42518;SDS011;28147;47.520;18.920;2024-02-16T09:08:33;14.05;;;7.20;;
42518;SDS011;28147;47.520;18.920;2024-02-16T09:11:03;10.93;;;6.47;;
42518;SDS011;28147;47.520;18.920;2024-02-16T09:13:35;13.23;;;7.25;;
42518;SDS011;28147;47.520;18.920;2024-02-16T09:16:01;13.75;;;6.70;;
42518;SDS011;28147;47.520;18.920;2024-02-16T09:18:28;12.43;;;6.45;;
42518;SDS011;28147;47.520;18.920;2024-02-16T09:20:53;11.00;;;6.35;;
42518;SDS011;28147;47.520;18.920;2024-02-16T09:23:19;11.35;;;6.80;;
42518;SDS011;28147;47.520;18.920;2024-02-16T09:25:44;12.32;;;7.10;;
42518;SDS011;28147;47.520;18.920;2024-02-16T09:28:11;10.57;;;6.25;;
42518;SDS011;28147;47.520;18.920;2024-02-16T09:30:37;12.10;;;6.85;;
42518;SDS011;28147;47.520;18.920;2024-02-16T09:33:02;12.00;;;7.43;;
42518;SDS011;28147;47.520;18.920;2024-02-16T09:35:28;13.93;;;6.55;;
42518;SDS011;28147;47.520;18.920;2024-02-16T09:37:53;11.95;;;7.05;;
42518;SDS011;28147;47.520;18.920;2024-02-16T09:40:18;13.98;;;7.30;;
42518;SDS011;28147;47.520;18.920;2024-02-16T09:42:47;13.75;;;6.95;;
42518;SDS011;28147;47.520;18.920;2024-02-16T09:45:14;13.23;;;6.97;;
42518;SDS011;28147;47.520;18.920;2024-02-16T09:47:41;10.60;;;7.05;;
42518;SDS011;28147;47.520;18.920;2024-02-16T09:50:09;12.82;;;7.18;;
42518;SDS011;28147;47.520;18.920;2024-02-16T09:52:35;13.80;;;6.35;;
42518;SDS011;28147;47.520;18.920;2024-02-16T09:55:01;11.20;;;6.13;;
42518;SDS011;28147;47.520;18.920;2024-02-16T09:57:27;9.50;;;6.15;;
42518;SDS011;28147;47.520;18.920;2024-02-16T09:59:52;9.20;;;5.75;;
42518;SDS011;28147;47.520;18.920;2024-02-16T10:02:18;11.77;;;7.13;;
42518;SDS011;28147;47.520;18.920;2024-02-16T10:04:43;16.05;;;7.30;;
42518;SDS011;28147;47.520;18.920;2024-02-16T10:07:08;13.38;;;7.28;;
42518;SDS011;28147;47.520;18.920;2024-02-16T10:09:33;11.05;;;6.68;;
42518;SDS011;28147;47.520;18.920;2024-02-16T10:11:59;13.98;;;7.40;;
42518;SDS011;28147;47.520;18.920;2024-02-16T10:14:25;11.73;;;6.95;;
42518;SDS011;28147;47.520;18.920;2024-02-16T10:17:03;12.98;;;6.32;;
42518;SDS011;28147;47.520;18.920;2024-02-16T10:19:31;12.30;;;6.93;;
42518;SDS011;28147;47.520;18.920;2024-02-16T10:22:05;12.93;;;6.20;;
42518;SDS011;28147;47.520;18.920;2024-02-16T10:24:32;13.27;;;6.50;;
42518;SDS011;28147;47.520;18.920;2024-02-16T10:26:57;12.85;;;6.60;;
42518;SDS011;28147;47.520;18.920;2024-02-16T10:29:23;12.80;;;6.05;;
42518;SDS011;28147;47.520;18.920;2024-02-16T10:31:52;9.90;;;5.68;;
42518;SDS011;28147;47.520;18.920;2024-02-16T10:34:17;13.95;;;6.70;;
42518;SDS011;28147;47.520;18.920;2024-02-16T10:36:44;9.02;;;5.97;;
42518;SDS011;28147;47.520;18.920;2024-02-16T10:39:09;10.00;;;5.30;;
42518;SDS011;28147;47.520;18.920;2024-02-16T10:41:40;14.10;;;6.20;;
42518;SDS011;28147;47.520;18.920;2024-02-16T10:44:06;10.57;;;5.50;;
42518;SDS011;28147;47.520;18.920;2024-02-16T10:46:32;9.18;;;5.20;;
42518;SDS011;28147;47.520;18.920;2024-02-16T10:48:58;8.98;;;5.35;;
42518;SDS011;28147;47.520;18.920;2024-02-16T10:51:46;8.90;;;4.63;;
42518;SDS011;28147;47.520;18.920;2024-02-16T10:54:11;8.63;;;4.15;;
42518;SDS011;28147;47.520;18.920;2024-02-16T10:56:40;7.63;;;4.65;;
42518;SDS011;28147;47.520;18.920;2024-02-16T10:59:09;9.43;;;4.65;;
42518;SDS011;28147;47.520;18.920;2024-02-16T11:04:04;9.00;;;4.97;;
42518;SDS011;28147;47.520;18.920;2024-02-16T11:06:53;10.38;;;5.63;;
42518;SDS011;28147;47.520;18.920;2024-02-16T11:09:28;7.50;;;4.38;;
42518;SDS011;28147;47.520;18.920;2024-02-16T11:11:54;7.65;;;3.78;;
42518;SDS011;28147;47.520;18.920;2024-02-16T11:14:23;6.22;;;3.55;;
42518;SDS011;28147;47.520;18.920;2024-02-16T11:16:49;6.93;;;3.75;;
42518;SDS011;28147;47.520;18.920;2024-02-16T11:19:18;7.80;;;4.25;;
42518;SDS011;28147;47.520;18.920;2024-02-16T11:21:57;9.90;;;4.53;;
42518;SDS011;28147;47.520;18.920;2024-02-16T11:24:29;8.63;;;4.35;;
42518;SDS011;28147;47.520;18.920;2024-02-16T11:27:01;7.57;;;4.88;;
42518;SDS011;28147;47.520;18.920;2024-02-16T11:29:29;8.38;;;4.75;;
42518;SDS011;28147;47.520;18.920;2024-02-16T11:31:57;9.25;;;4.80;;
42518;SDS011;28147;47.520;18.920;2024-02-16T11:34:23;7.05;;;4.35;;
42518;SDS011;28147;47.520;18.920;2024-02-16T11:36:54;5.82;;;3.78;;
42518;SDS011;28147;47.520;18.920;2024-02-16T11:39:20;6.18;;;3.67;;
42518;SDS011;28147;47.520;18.920;2024-02-16T11:41:46;6.50;;;3.97;;
42518;SDS011;28147;47.520;18.920;2024-02-16T11:44:15;7.13;;;3.92;;
42518;SDS011;28147;47.520;18.920;2024-02-16T11:46:43;7.47;;;3.92;;
42518;SDS011;28147;47.520;18.920;2024-02-16T11:49:09;10.27;;;4.60;;
42518;SDS011;28147;47.520;18.920;2024-02-16T11:51:35;8.50;;;3.72;;
42518;SDS011;28147;47.520;18.920;2024-02-16T11:54:00;6.55;;;3.83;;
42518;SDS011;28147;47.520;18.920;2024-02-16T11:56:26;7.53;;;3.97;;
42518;SDS011;28147;47.520;18.920;2024-02-16T11:58:52;9.23;;;3.65;;
42518;SDS011;28147;47.520;18.920;2024-02-16T12:01:18;7.47;;;4.82;;
42518;SDS011;28147;47.520;18.920;2024-02-16T12:03:44;7.07;;;4.00;;
42518;SDS011;28147;47.520;18.920;2024-02-16T12:06:09;7.28;;;3.78;;
42518;SDS011;28147;47.520;18.920;2024-02-16T12:08:45;8.23;;;4.47;;
42518;SDS011;28147;47.520;18.920;2024-02-16T12:11:10;6.75;;;4.10;;
42518;SDS011;28147;47.520;18.920;2024-02-16T12:13:36;6.78;;;3.95;;
42518;SDS011;28147;47.520;18.920;2024-02-16T12:16:01;7.25;;;4.55;;
42518;SDS011;28147;47.520;18.920;2024-02-16T12:18:28;9.60;;;5.30;;
42518;SDS011;28147;47.520;18.920;2024-02-16T12:20:57;12.50;;;6.82;;
42518;SDS011;28147;47.520;18.920;2024-02-16T12:23:23;12.18;;;5.20;;
42518;SDS011;28147;47.520;18.920;2024-02-16T12:25:49;8.48;;;4.45;;
42518;SDS011;28147;47.520;18.920;2024-02-16T12:28:14;11.10;;;5.45;;
42518;SDS011;28147;47.520;18.920;2024-02-16T12:30:39;7.95;;;4.20;;
42518;SDS011;28147;47.520;18.920;2024-02-16T12:33:05;8.02;;;4.30;;
42518;SDS011;28147;47.520;18.920;2024-02-16T12:35:30;8.50;;;4.93;;
42518;SDS011;28147;47.520;18.920;2024-02-16T12:37:56;10.07;;;4.13;;
42518;SDS011;28147;47.520;18.920;2024-02-16T12:40:21;10.88;;;6.60;;
42518;SDS011;28147;47.520;18.920;2024-02-16T12:42:47;8.98;;;5.70;;
42518;SDS011;28147;47.520;18.920;2024-02-16T12:45:13;13.32;;;6.65;;
42518;SDS011;28147;47.520;18.920;2024-02-16T12:47:38;10.35;;;6.43;;
42518;SDS011;28147;47.520;18.920;2024-02-16T12:50:03;11.90;;;6.68;;
42518;SDS011;28147;47.520;18.920;2024-02-16T12:52:29;12.45;;;6.35;;
42518;SDS011;28147;47.520;18.920;2024-02-16T12:54:56;10.38;;;5.85;;
42518;SDS011;28147;47.520;18.920;2024-02-16T12:57:23;11.35;;;6.00;;
42518;SDS011;28147;47.520;18.920;2024-02-16T12:59:49;9.55;;;5.63;;
42518;SDS011;28147;47.520;18.920;2024-02-16T13:02:14;8.60;;;5.28;;
42518;SDS011;28147;47.520;18.920;2024-02-16T13:04:39;7.10;;;4.68;;
42518;SDS011;28147;47.520;18.920;2024-02-16T13:07:05;12.10;;;5.10;;
42518;SDS011;28147;47.520;18.920;2024-02-16T13:09:30;6.65;;;4.57;;
42518;SDS011;28147;47.520;18.920;2024-02-16T13:11:56;9.93;;;5.05;;
42518;SDS011;28147;47.520;18.920;2024-02-16T13:14:21;9.55;;;4.78;;
42518;SDS011;28147;47.520;18.920;2024-02-16T13:16:47;9.85;;;5.90;;
42518;SDS011;28147;47.520;18.920;2024-02-16T13:19:12;9.02;;;4.97;;
42518;SDS011;28147;47.520;18.920;2024-02-16T13:21:38;7.60;;;4.57;;
42518;SDS011;28147;47.520;18.920;2024-02-16T13:24:04;8.20;;;3.97;;
42518;SDS011;28147;47.520;18.920;2024-02-16T13:26:32;4.22;;;2.85;;
42518;SDS011;28147;47.520;18.920;2024-02-16T13:28:58;9.48;;;4.57;;
42518;SDS011;28147;47.520;18.920;2024-02-16T13:31:24;8.38;;;4.10;;
42518;SDS011;28147;47.520;18.920;2024-02-16T13:33:56;9.40;;;4.57;;
42518;SDS011;28147;47.520;18.920;2024-02-16T13:36:22;9.50;;;4.30;;
42518;SDS011;28147;47.520;18.920;2024-02-16T13:38:47;7.63;;;4.47;;
42518;SDS011;28147;47.520;18.920;2024-02-16T13:41:12;7.95;;;4.50;;
42518;SDS011;28147;47.520;18.920;2024-02-16T13:43:37;8.07;;;4.80;;
42518;SDS011;28147;47.520;18.920;2024-02-16T13:46:03;8.00;;;4.75;;
42518;SDS011;28147;47.520;18.920;2024-02-16T13:48:28;9.27;;;4.90;;
42518;SDS011;28147;47.520;18.920;2024-02-16T13:50:55;8.65;;;5.32;;
42518;SDS011;28147;47.520;18.920;2024-02-16T13:53:21;10.65;;;5.97;;
42518;SDS011;28147;47.520;18.920;2024-02-16T13:55:48;9.77;;;5.75;;
42518;SDS011;28147;47.520;18.920;2024-02-16T13:58:13;8.68;;;5.15;;
42518;SDS011;28147;47.520;18.920;2024-02-16T14:00:39;9.35;;;5.22;;
42518;SDS011;28147;47.520;18.920;2024-02-16T14:03:05;8.57;;;5.00;;
42518;SDS011;28147;47.520;18.920;2024-02-16T14:05:39;8.98;;;5.20;;
42518;SDS011;28147;47.520;18.920;2024-02-16T14:08:04;9.55;;;5.60;;
42518;SDS011;28147;47.520;18.920;2024-02-16T14:10:31;9.18;;;5.25;;
42518;SDS011;28147;47.520;18.920;2024-02-16T14:12:59;9.90;;;5.03;;
42518;SDS011;28147;47.520;18.920;2024-02-16T14:15:25;8.70;;;5.38;;
42518;SDS011;28147;47.520;18.920;2024-02-16T14:17:50;9.45;;;5.47;;
42518;SDS011;28147;47.520;18.920;2024-02-16T14:20:16;8.55;;;5.38;;
42518;SDS011;28147;47.520;18.920;2024-02-16T14:22:41;9.23;;;5.78;;
42518;SDS011;28147;47.520;18.920;2024-02-16T14:25:06;10.25;;;4.97;;
42518;SDS011;28147;47.520;18.920;2024-02-16T14:27:35;8.77;;;5.20;;
42518;SDS011;28147;47.520;18.920;2024-02-16T14:30:00;8.45;;;5.63;;
42518;SDS011;28147;47.520;18.920;2024-02-16T14:32:26;10.52;;;5.95;;
42518;SDS011;28147;47.520;18.920;2024-02-16T14:34:51;10.10;;;6.30;;
42518;SDS011;28147;47.520;18.920;2024-02-16T14:37:16;12.07;;;6.05;;
42518;SDS011;28147;47.520;18.920;2024-02-16T14:39:42;10.00;;;5.28;;
42518;SDS011;28147;47.520;18.920;2024-02-16T14:42:07;10.10;;;5.72;;
42518;SDS011;28147;47.520;18.920;2024-02-16T14:44:32;8.85;;;5.45;;
42518;SDS011;28147;47.520;18.920;2024-02-16T14:46:57;9.45;;;5.35;;
42518;SDS011;28147;47.520;18.920;2024-02-16T14:49:23;9.50;;;5.32;;
42518;SDS011;28147;47.520;18.920;2024-02-16T14:51:49;10.63;;;6.40;;
42518;SDS011;28147;47.520;18.920;2024-02-16T14:54:17;9.52;;;5.85;;
42518;SDS011;28147;47.520;18.920;2024-02-16T14:56:43;11.38;;;6.15;;
42518;SDS011;28147;47.520;18.920;2024-02-16T14:59:08;10.90;;;6.57;;
42518;SDS011;28147;47.520;18.920;2024-02-16T15:01:35;10.20;;;5.55;;
42518;SDS011;28147;47.520;18.920;2024-02-16T15:04:02;8.60;;;5.85;;
42518;SDS011;28147;47.520;18.920;2024-02-16T15:06:28;10.38;;;5.43;;
42518;SDS011;28147;47.520;18.920;2024-02-16T15:08:54;10.27;;;5.38;;